Shin Chun — VRFD2 — position and weather

sailwx.info

Track history (hours):
 
Tides and Currents Weather Stations Pressure Air Temp Water Temp Dewpoint Dewpoint Depression Visibility Wind Speed Wind Dir Waves Ship Positions

Shin Chun

Last reported at 2016-May-28 13:06 UTC. Time now 2016-May-28 20:44 UTC.
Position N 26°02' E 119°51'.

Length 152 m; draft 6 m.

Type: Cargo ship. MMSI: 477218300.

Date/timePositionNaut miles runAvg speedWind from/ knotsBaromVisibWave heightAir tempDewpointWater temp
2016-May-28 13:06N 26°02' E 119°51'0 0.1
2016-May-28 12:31N 26°02' E 119°51'17 5.6
2016-May-28 09:25N 25°46' E 119°57'17714.9
2016-May-27 21:33N 22°49' E 120°05'1312.5
2016-May-27 20:33N 22°39' E 120°12'6 6.5
2016-May-27 19:33N 22°35' E 120°18'0 0.0
2016-May-27 18:30N 22°35' E 120°18'0 0.0
2016-May-27 17:30N 22°35' E 120°18'0 0.0
2016-May-27 16:30N 22°35' E 120°18'0 0.0
2016-May-27 15:30N 22°35' E 120°18'0 0.0
2016-May-27 14:30N 22°35' E 120°18'0 0.0
2016-May-27 13:30N 22°35' E 120°18'0 0.0
2016-May-27 12:24N 22°35' E 120°18'3 3.1
2016-May-27 11:33N 22°37' E 120°17'2 2.4
2016-May-27 10:32N 22°36' E 120°14'0 0.0
2016-May-27 09:32N 22°36' E 120°14'0 0.1
2016-May-27 08:32N 22°36' E 120°14'0 0.0
2016-May-27 07:14N 22°36' E 120°14'0 0.0
2016-May-27 06:32N 22°36' E 120°14'0 0.0
2016-May-27 05:32N 22°36' E 120°14'0 0.0
2016-May-27 04:32N 22°36' E 120°14'0 0.1
2016-May-27 03:32N 22°36' E 120°14'0 0.1
2016-May-27 02:32N 22°36' E 120°14'0 0.0
2016-May-27 01:32N 22°36' E 120°14'0 0.0
2016-May-27 00:32N 22°36' E 120°14'0 0.1
2016-May-26 23:32N 22°36' E 120°14'0 0.0
2016-May-26 22:32N 22°36' E 120°14'0 0.1
2016-May-26 21:32N 22°36' E 120°14'0 0.1
2016-May-26 20:32N 22°36' E 120°14'0 0.0
2016-May-26 19:32N 22°36' E 120°14'0 0.0
2016-May-26 18:26N 22°36' E 120°14'0 0.0
2016-May-26 17:32N 22°36' E 120°14'0 0.0
2016-May-26 16:32N 22°36' E 120°14'0 0.0
2016-May-26 15:32N 22°36' E 120°14'0 0.1
2016-May-26 14:26N 22°36' E 120°14'0 0.1
2016-May-26 13:26N 22°36' E 120°14'0 0.3
2016-May-26 12:33N 22°36' E 120°14'1111.2
2016-May-26 11:33N 22°43' E 120°04'1514.9
2016-May-26 10:33N 22°51' E 119°51'1615.7
2016-May-26 09:33N 23°00' E 119°36'9314.9
2016-May-26 03:18N 24°07' E 118°25'1114.0
2016-May-26 02:33N 24°14' E 118°17'1414.0
2016-May-26 01:34N 24°24' E 118°06'7 6.6
2016-May-26 00:33N 24°31' E 118°05'0 0.0
2016-May-25 23:32N 24°31' E 118°05'0 0.0
2016-May-25 22:32N 24°31' E 118°05'0 0.0
2016-May-25 21:29N 24°31' E 118°05'0 0.0
2016-May-25 20:32N 24°31' E 118°05'0 0.0
2016-May-25 19:32N 24°31' E 118°05'0 0.0
2016-May-25 18:26N 24°31' E 118°05'0 0.0
2016-May-25 17:32N 24°31' E 118°05'0 0.0
2016-May-25 16:08N 24°31' E 118°05'0 0.0
2016-May-25 15:29N 24°31' E 118°05'0 0.0
2016-May-25 14:29N 24°31' E 118°05'0 0.0
2016-May-25 13:31N 24°31' E 118°05'0 0.0
2016-May-25 12:31N 24°31' E 118°05'0 0.0
2016-May-25 11:28N 24°31' E 118°05'0 0.0
2016-May-25 10:31N 24°31' E 118°05'0 0.0
2016-May-25 09:31N 24°31' E 118°05'0 0.0
2016-May-25 08:25N 24°31' E 118°05'1 1.0
2016-May-25 07:33N 24°30' E 118°04'7 7.2
2016-May-25 06:33N 24°23' E 118°07'4 3.8
2016-May-25 05:32N 24°21' E 118°11'0 0.0
2016-May-25 04:23N 24°21' E 118°11'0 0.1
2016-May-25 03:32N 24°21' E 118°11'0 0.0
2016-May-25 02:29N 24°21' E 118°11'0 0.1
2016-May-25 01:32N 24°21' E 118°11'0 0.1
2016-May-25 00:32N 24°21' E 118°11'1 0.7
2016-May-24 23:33N 24°20' E 118°11'1313.0
2016-May-24 22:33N 24°21' E 118°26'1514.5
2016-May-24 21:32N 24°25' E 118°41'1614.4
2016-May-24 20:27N 24°32' E 118°57'1314.7
2016-May-24 19:34N 24°36' E 119°10'116 3.5
2016-May-23 10:12N 22°50' E 120°04'1014.7
2016-May-23 09:33N 22°42' E 120°09'1211.9
2016-May-23 08:32N 22°33' E 120°18'2 1.7
2016-May-23 07:31N 22°35' E 120°18'0 0.0
2016-May-23 06:31N 22°35' E 120°18'0 0.0
2016-May-23 04:25N 22°35' E 120°18'0 0.0
2016-May-23 03:31N 22°35' E 120°18'0 0.0
2016-May-23 02:25N 22°35' E 120°18'0 0.0
2016-May-23 01:31N 22°35' E 120°18'0 0.0
2016-May-22 23:31N 22°35' E 120°18'0 0.0
2016-May-22 22:25N 22°35' E 120°18'0 0.0
2016-May-22 21:31N 22°35' E 120°18'0 0.0
2016-May-22 20:33N 22°35' E 120°18'9 8.5
2016-May-22 19:33N 22°40' E 120°11'1514.9
2016-May-22 18:33N 22°53' E 120°03'17912.5
2016-May-22 04:15N 25°51' E 119°54'1513.3
2016-May-22 03:06N 26°05' E 119°47'14 8.8
2016-May-22 01:33N 26°05' E 119°31'5 4.6
2016-May-22 00:30N 26°00' E 119°29'0 0.0
2016-May-21 23:30N 26°00' E 119°29'0 0.0
2016-May-21 22:30N 26°00' E 119°29'0 0.0
2016-May-21 21:30N 26°00' E 119°29'0 0.0
2016-May-21 20:24N 26°00' E 119°29'0 0.0
2016-May-21 19:30N 26°00' E 119°29'0 0.0
2016-May-21 18:24N 26°00' E 119°29'0 0.0
2016-May-21 17:30N 26°00' E 119°29'0 0.0
2016-May-21 15:30N 26°00' E 119°29'0 0.0
2016-May-21 14:24N 26°00' E 119°29'0 0.0
2016-May-21 13:30N 26°00' E 119°29'0 0.0
2016-May-21 11:30N 26°00' E 119°29'0 0.0
2016-May-21 10:30N 26°00' E 119°29'0 0.0
2016-May-21 09:24N 26°00' E 119°29'0 0.0
2016-May-21 08:30N 26°00' E 119°29'0 0.0
2016-May-21 05:30N 26°00' E 119°29'0 0.0
2016-May-21 04:30N 26°00' E 119°29'0 0.0
2016-May-21 03:27N 26°00' E 119°29'6 6.2
2016-May-21 02:33N 26°05' E 119°32'9 7.9
2016-May-21 01:28N 26°06' E 119°41'12 8.9
2016-May-21 00:08N 25°57' E 119°51'1215.2
2016-May-20 23:20N 25°47' E 119°56'10415.3
2016-May-20 16:33N 24°03' E 119°58'1515.5
2016-May-20 15:33N 23°47' E 119°58'2116.9
2016-May-20 14:19N 23°27' E 119°57'3817.0
2016-May-20 12:07N 22°50' E 120°05'916.4
2016-May-20 11:33N 22°42' E 120°10'1110.7
2016-May-20 10:34N 22°34' E 120°18'0 0.2
2016-May-20 09:32N 22°35' E 120°18'0 0.0
2016-May-20 08:26N 22°35' E 120°18'0 0.0
2016-May-20 07:32N 22°35' E 120°18'0 0.0
2016-May-20 06:32N 22°35' E 120°18'5 2.4
2016-May-20 04:33N 22°37' E 120°14'1 1.3
2016-May-20 03:31N 22°39' E 120°13'0 0.0
2016-May-20 02:31N 22°39' E 120°13'0 0.0
2016-May-20 01:31N 22°39' E 120°13'0 0.0
2016-May-20 00:31N 22°39' E 120°13'0 0.0
2016-May-19 23:25N 22°39' E 120°13'0 0.0
2016-May-19 22:31N 22°39' E 120°13'0 0.0
2016-May-19 21:31N 22°39' E 120°13'0 0.0
2016-May-19 20:31N 22°39' E 120°13'0 0.0
2016-May-19 19:31N 22°39' E 120°13'0 0.1
2016-May-19 18:31N 22°39' E 120°13'0 0.1
2016-May-19 17:31N 22°39' E 120°13'0 0.1
2016-May-19 16:31N 22°39' E 120°13'0 0.0
2016-May-19 15:31N 22°39' E 120°13'0 0.0
2016-May-19 14:19N 22°39' E 120°13'0 0.0
2016-May-19 13:25N 22°39' E 120°13'5 5.4
2016-May-19 12:34N 22°40' E 120°09'1414.2
2016-May-19 11:34N 22°48' E 119°56'1413.8
2016-May-19 10:33N 22°56' E 119°44'11614.4
2016-May-19 02:27N 24°18' E 118°13'1112.2
2016-May-19 01:33N 24°25' E 118°04'5 5.0
2016-May-19 00:30N 24°30' E 118°05'0 0.0
2016-May-18 21:15N 24°30' E 118°05'0 0.0
2016-May-18 20:27N 24°30' E 118°05'0 0.0
2016-May-18 19:18N 24°30' E 118°05'0 0.0
2016-May-18 18:33N 24°30' E 118°05'0 0.0
2016-May-18 17:30N 24°30' E 118°05'0 0.0
2016-May-18 16:30N 24°30' E 118°05'0 0.0
2016-May-18 15:30N 24°30' E 118°05'0 0.0
2016-May-18 13:30N 24°30' E 118°05'  
Track history (hours):
 
Tides and Currents Weather Stations Pressure Air Temp Water Temp Dewpoint Dewpoint Depression Visibility Wind Speed Wind Dir Waves Ship Positions

Shin Chun

Last reported at 2016-May-28 13:06 UTC. Time now 2016-May-28 20:44 UTC.
Position N 26°02' E 119°51'.

Length 152 m; draft 6 m.

Type: Cargo ship. MMSI: 477218300.

Date/timePositionNaut miles runAvg speedWind from/ knotsBaromVisibWave heightAir tempDewpointWater temp
2016-May-28 13:06N 26°02' E 119°51'0 0.1
2016-May-28 12:31N 26°02' E 119°51'17 5.6
2016-May-28 09:25N 25°46' E 119°57'17714.9
2016-May-27 21:33N 22°49' E 120°05'1312.5
2016-May-27 20:33N 22°39' E 120°12'6 6.5
2016-May-27 19:33N 22°35' E 120°18'0 0.0
2016-May-27 18:30N 22°35' E 120°18'0 0.0
2016-May-27 17:30N 22°35' E 120°18'0 0.0
2016-May-27 16:30N 22°35' E 120°18'0 0.0
2016-May-27 15:30N 22°35' E 120°18'0 0.0
2016-May-27 14:30N 22°35' E 120°18'0 0.0
2016-May-27 13:30N 22°35' E 120°18'0 0.0
2016-May-27 12:24N 22°35' E 120°18'3 3.1
2016-May-27 11:33N 22°37' E 120°17'2 2.4
2016-May-27 10:32N 22°36' E 120°14'0 0.0
2016-May-27 09:32N 22°36' E 120°14'0 0.1
2016-May-27 08:32N 22°36' E 120°14'0 0.0
2016-May-27 07:14N 22°36' E 120°14'0 0.0
2016-May-27 06:32N 22°36' E 120°14'0 0.0
2016-May-27 05:32N 22°36' E 120°14'0 0.0
2016-May-27 04:32N 22°36' E 120°14'0 0.1
2016-May-27 03:32N 22°36' E 120°14'0 0.1
2016-May-27 02:32N 22°36' E 120°14'0 0.0
2016-May-27 01:32N 22°36' E 120°14'0 0.0
2016-May-27 00:32N 22°36' E 120°14'0 0.1
2016-May-26 23:32N 22°36' E 120°14'0 0.0
2016-May-26 22:32N 22°36' E 120°14'0 0.1
2016-May-26 21:32N 22°36' E 120°14'0 0.1
2016-May-26 20:32N 22°36' E 120°14'0 0.0
2016-May-26 19:32N 22°36' E 120°14'0 0.0
2016-May-26 18:26N 22°36' E 120°14'0 0.0
2016-May-26 17:32N 22°36' E 120°14'0 0.0
2016-May-26 16:32N 22°36' E 120°14'0 0.0
2016-May-26 15:32N 22°36' E 120°14'0 0.1
2016-May-26 14:26N 22°36' E 120°14'0 0.1
2016-May-26 13:26N 22°36' E 120°14'0 0.3
2016-May-26 12:33N 22°36' E 120°14'1111.2
2016-May-26 11:33N 22°43' E 120°04'1514.9
2016-May-26 10:33N 22°51' E 119°51'1615.7
2016-May-26 09:33N 23°00' E 119°36'9314.9
2016-May-26 03:18N 24°07' E 118°25'1114.0
2016-May-26 02:33N 24°14' E 118°17'1414.0
2016-May-26 01:34N 24°24' E 118°06'7 6.6
2016-May-26 00:33N 24°31' E 118°05'0 0.0
2016-May-25 23:32N 24°31' E 118°05'0 0.0
2016-May-25 22:32N 24°31' E 118°05'0 0.0
2016-May-25 21:29N 24°31' E 118°05'0 0.0
2016-May-25 20:32N 24°31' E 118°05'0 0.0
2016-May-25 19:32N 24°31' E 118°05'0 0.0
2016-May-25 18:26N 24°31' E 118°05'0 0.0
2016-May-25 17:32N 24°31' E 118°05'0 0.0
2016-May-25 16:08N 24°31' E 118°05'0 0.0
2016-May-25 15:29N 24°31' E 118°05'0 0.0
2016-May-25 14:29N 24°31' E 118°05'0 0.0
2016-May-25 13:31N 24°31' E 118°05'0 0.0
2016-May-25 12:31N 24°31' E 118°05'0 0.0
2016-May-25 11:28N 24°31' E 118°05'0 0.0
2016-May-25 10:31N 24°31' E 118°05'0 0.0
2016-May-25 09:31N 24°31' E 118°05'0 0.0
2016-May-25 08:25N 24°31' E 118°05'1 1.0
2016-May-25 07:33N 24°30' E 118°04'7 7.2
2016-May-25 06:33N 24°23' E 118°07'4 3.8
2016-May-25 05:32N 24°21' E 118°11'0 0.0
2016-May-25 04:23N 24°21' E 118°11'0 0.1
2016-May-25 03:32N 24°21' E 118°11'0 0.0
2016-May-25 02:29N 24°21' E 118°11'0 0.1
2016-May-25 01:32N 24°21' E 118°11'0 0.1
2016-May-25 00:32N 24°21' E 118°11'1 0.7
2016-May-24 23:33N 24°20' E 118°11'1313.0
2016-May-24 22:33N 24°21' E 118°26'1514.5
2016-May-24 21:32N 24°25' E 118°41'1614.4
2016-May-24 20:27N 24°32' E 118°57'1314.7
2016-May-24 19:34N 24°36' E 119°10'116 3.5
2016-May-23 10:12N 22°50' E 120°04'1014.7
2016-May-23 09:33N 22°42' E 120°09'1211.9
2016-May-23 08:32N 22°33' E 120°18'2 1.7
2016-May-23 07:31N 22°35' E 120°18'0 0.0
2016-May-23 06:31N 22°35' E 120°18'0 0.0
2016-May-23 04:25N 22°35' E 120°18'0 0.0
2016-May-23 03:31N 22°35' E 120°18'0 0.0
2016-May-23 02:25N 22°35' E 120°18'0 0.0
2016-May-23 01:31N 22°35' E 120°18'0 0.0
2016-May-22 23:31N 22°35' E 120°18'0 0.0
2016-May-22 22:25N 22°35' E 120°18'0 0.0
2016-May-22 21:31N 22°35' E 120°18'0 0.0
2016-May-22 20:33N 22°35' E 120°18'9 8.5
2016-May-22 19:33N 22°40' E 120°11'1514.9
2016-May-22 18:33N 22°53' E 120°03'17912.5
2016-May-22 04:15N 25°51' E 119°54'1513.3
2016-May-22 03:06N 26°05' E 119°47'14 8.8
2016-May-22 01:33N 26°05' E 119°31'5 4.6
2016-May-22 00:30N 26°00' E 119°29'0 0.0
2016-May-21 23:30N 26°00' E 119°29'0 0.0
2016-May-21 22:30N 26°00' E 119°29'0 0.0
2016-May-21 21:30N 26°00' E 119°29'0 0.0
2016-May-21 20:24N 26°00' E 119°29'0 0.0
2016-May-21 19:30N 26°00' E 119°29'0 0.0
2016-May-21 18:24N 26°00' E 119°29'0 0.0
2016-May-21 17:30N 26°00' E 119°29'0 0.0
2016-May-21 15:30N 26°00' E 119°29'0 0.0
2016-May-21 14:24N 26°00' E 119°29'0 0.0
2016-May-21 13:30N 26°00' E 119°29'0 0.0
2016-May-21 11:30N 26°00' E 119°29'0 0.0
2016-May-21 10:30N 26°00' E 119°29'0 0.0
2016-May-21 09:24N 26°00' E 119°29'0 0.0
2016-May-21 08:30N 26°00' E 119°29'0 0.0
2016-May-21 05:30N 26°00' E 119°29'0 0.0
2016-May-21 04:30N 26°00' E 119°29'0 0.0
2016-May-21 03:27N 26°00' E 119°29'6 6.2
2016-May-21 02:33N 26°05' E 119°32'9 7.9
2016-May-21 01:28N 26°06' E 119°41'12 8.9
2016-May-21 00:08N 25°57' E 119°51'1215.2
2016-May-20 23:20N 25°47' E 119°56'10415.3
2016-May-20 16:33N 24°03' E 119°58'1515.5
2016-May-20 15:33N 23°47' E 119°58'2116.9
2016-May-20 14:19N 23°27' E 119°57'3817.0
2016-May-20 12:07N 22°50' E 120°05'916.4
2016-May-20 11:33N 22°42' E 120°10'1110.7
2016-May-20 10:34N 22°34' E 120°18'0 0.2
2016-May-20 09:32N 22°35' E 120°18'0 0.0
2016-May-20 08:26N 22°35' E 120°18'0 0.0
2016-May-20 07:32N 22°35' E 120°18'0 0.0
2016-May-20 06:32N 22°35' E 120°18'5 2.4
2016-May-20 04:33N 22°37' E 120°14'1 1.3
2016-May-20 03:31N 22°39' E 120°13'0 0.0
2016-May-20 02:31N 22°39' E 120°13'0 0.0
2016-May-20 01:31N 22°39' E 120°13'0 0.0
2016-May-20 00:31N 22°39' E 120°13'0 0.0
2016-May-19 23:25N 22°39' E 120°13'0 0.0
2016-May-19 22:31N 22°39' E 120°13'0 0.0
2016-May-19 21:31N 22°39' E 120°13'0 0.0
2016-May-19 20:31N 22°39' E 120°13'0 0.0
2016-May-19 19:31N 22°39' E 120°13'0 0.1
2016-May-19 18:31N 22°39' E 120°13'0 0.1
2016-May-19 17:31N 22°39' E 120°13'0 0.1
2016-May-19 16:31N 22°39' E 120°13'0 0.0
2016-May-19 15:31N 22°39' E 120°13'0 0.0
2016-May-19 14:19N 22°39' E 120°13'0 0.0
2016-May-19 13:25N 22°39' E 120°13'5 5.4
2016-May-19 12:34N 22°40' E 120°09'1414.2
2016-May-19 11:34N 22°48' E 119°56'1413.8
2016-May-19 10:33N 22°56' E 119°44'11614.4
2016-May-19 02:27N 24°18' E 118°13'1112.2
2016-May-19 01:33N 24°25' E 118°04'5 5.0
2016-May-19 00:30N 24°30' E 118°05'0 0.0
2016-May-18 21:15N 24°30' E 118°05'0 0.0
2016-May-18 20:27N 24°30' E 118°05'0 0.0
2016-May-18 19:18N 24°30' E 118°05'0 0.0
2016-May-18 18:33N 24°30' E 118°05'0 0.0
2016-May-18 17:30N 24°30' E 118°05'0 0.0
2016-May-18 16:30N 24°30' E 118°05'0 0.0
2016-May-18 15:30N 24°30' E 118°05'0 0.0
2016-May-18 13:30N 24°30' E 118°05'  

Dump ship's entire track history